sensor_id;sensor_type;location;lat;lon;timestamp;P1;durP1;ratioP1;P2;durP2;ratioP2
44197;SDS011;30157;55.512;37.764;2022-11-11T00:02:12;40.72;;;21.85;;
44197;SDS011;30157;55.512;37.764;2022-11-11T00:04:56;40.85;;;20.88;;
44197;SDS011;30157;55.512;37.764;2022-11-11T00:07:41;39.17;;;20.55;;
44197;SDS011;30157;55.512;37.764;2022-11-11T00:10:26;42.17;;;20.85;;
44197;SDS011;30157;55.512;37.764;2022-11-11T00:13:11;41.72;;;21.45;;
44197;SDS011;30157;55.512;37.764;2022-11-11T00:15:55;44.15;;;20.92;;
44197;SDS011;30157;55.512;37.764;2022-11-11T00:18:40;43.08;;;23.35;;
44197;SDS011;30157;55.512;37.764;2022-11-11T00:21:44;41.63;;;20.67;;
44197;SDS011;30157;55.512;37.764;2022-11-11T00:24:46;43.42;;;21.58;;
44197;SDS011;30157;55.512;37.764;2022-11-11T00:27:48;40.15;;;20.52;;
44197;SDS011;30157;55.512;37.764;2022-11-11T00:30:33;39.92;;;20.67;;
44197;SDS011;30157;55.512;37.764;2022-11-11T00:33:17;42.00;;;20.58;;
44197;SDS011;30157;55.512;37.764;2022-11-11T00:36:01;36.45;;;19.00;;
44197;SDS011;30157;55.512;37.764;2022-11-11T00:38:45;37.90;;;18.83;;
44197;SDS011;30157;55.512;37.764;2022-11-11T00:41:30;38.08;;;19.00;;
44197;SDS011;30157;55.512;37.764;2022-11-11T00:44:14;36.40;;;19.77;;
44197;SDS011;30157;55.512;37.764;2022-11-11T00:46:59;45.38;;;20.98;;
44197;SDS011;30157;55.512;37.764;2022-11-11T00:50:03;39.63;;;19.88;;
44197;SDS011;30157;55.512;37.764;2022-11-11T00:53:12;39.00;;;21.08;;
44197;SDS011;30157;55.512;37.764;2022-11-11T00:55:58;43.78;;;21.10;;
44197;SDS011;30157;55.512;37.764;2022-11-11T00:58:42;52.47;;;24.90;;
44197;SDS011;30157;55.512;37.764;2022-11-11T01:01:26;51.70;;;23.92;;
44197;SDS011;30157;55.512;37.764;2022-11-11T01:04:11;44.20;;;21.90;;
44197;SDS011;30157;55.512;37.764;2022-11-11T01:06:55;51.80;;;23.20;;
44197;SDS011;30157;55.512;37.764;2022-11-11T01:09:39;46.20;;;21.55;;
44197;SDS011;30157;55.512;37.764;2022-11-11T01:12:23;46.25;;;21.55;;
44197;SDS011;30157;55.512;37.764;2022-11-11T01:15:08;42.00;;;21.08;;
44197;SDS011;30157;55.512;37.764;2022-11-11T01:17:52;40.97;;;20.83;;
44197;SDS011;30157;55.512;37.764;2022-11-11T01:20:37;42.63;;;20.33;;
44197;SDS011;30157;55.512;37.764;2022-11-11T01:23:21;47.85;;;22.02;;
44197;SDS011;30157;55.512;37.764;2022-11-11T01:28:51;41.92;;;20.58;;
44197;SDS011;30157;55.512;37.764;2022-11-11T01:31:37;48.65;;;22.55;;
44197;SDS011;30157;55.512;37.764;2022-11-11T01:34:21;43.88;;;20.08;;
44197;SDS011;30157;55.512;37.764;2022-11-11T01:37:05;49.25;;;21.88;;
44197;SDS011;30157;55.512;37.764;2022-11-11T01:39:50;42.63;;;20.88;;
44197;SDS011;30157;55.512;37.764;2022-11-11T01:48:55;45.08;;;21.73;;
44197;SDS011;30157;55.512;37.764;2022-11-11T01:54:51;53.83;;;23.80;;
44197;SDS011;30157;55.512;37.764;2022-11-11T01:58:01;39.65;;;20.27;;
44197;SDS011;30157;55.512;37.764;2022-11-11T02:00:49;43.35;;;20.00;;
44197;SDS011;30157;55.512;37.764;2022-11-11T02:03:34;45.40;;;20.50;;
44197;SDS011;30157;55.512;37.764;2022-11-11T02:06:23;49.95;;;22.77;;
44197;SDS011;30157;55.512;37.764;2022-11-11T02:09:08;47.67;;;22.03;;
44197;SDS011;30157;55.512;37.764;2022-11-11T02:11:53;38.78;;;19.50;;
44197;SDS011;30157;55.512;37.764;2022-11-11T02:14:59;40.85;;;18.77;;
44197;SDS011;30157;55.512;37.764;2022-11-11T02:17:44;42.40;;;20.67;;
44197;SDS011;30157;55.512;37.764;2022-11-11T02:20:36;41.17;;;19.48;;
44197;SDS011;30157;55.512;37.764;2022-11-11T02:23:33;37.58;;;17.90;;
44197;SDS011;30157;55.512;37.764;2022-11-11T02:26:20;35.78;;;17.60;;
44197;SDS011;30157;55.512;37.764;2022-11-11T02:29:09;38.85;;;18.60;;
44197;SDS011;30157;55.512;37.764;2022-11-11T02:31:56;31.45;;;16.30;;
44197;SDS011;30157;55.512;37.764;2022-11-11T02:34:40;38.20;;;18.35;;
44197;SDS011;30157;55.512;37.764;2022-11-11T02:37:25;41.92;;;19.10;;
44197;SDS011;30157;55.512;37.764;2022-11-11T02:40:13;32.03;;;18.00;;
44197;SDS011;30157;55.512;37.764;2022-11-11T02:43:01;34.00;;;16.10;;
44197;SDS011;30157;55.512;37.764;2022-11-11T02:45:45;33.22;;;16.67;;
44197;SDS011;30157;55.512;37.764;2022-11-11T02:48:29;41.30;;;17.52;;
44197;SDS011;30157;55.512;37.764;2022-11-11T02:51:14;33.35;;;16.38;;
44197;SDS011;30157;55.512;37.764;2022-11-11T02:53:58;36.60;;;17.13;;
44197;SDS011;30157;55.512;37.764;2022-11-11T02:56:42;31.85;;;15.57;;
44197;SDS011;30157;55.512;37.764;2022-11-11T02:59:45;42.83;;;18.95;;
44197;SDS011;30157;55.512;37.764;2022-11-11T03:02:32;30.45;;;14.90;;
44197;SDS011;30157;55.512;37.764;2022-11-11T03:05:16;33.15;;;15.55;;
44197;SDS011;30157;55.512;37.764;2022-11-11T03:08:00;33.28;;;15.85;;
44197;SDS011;30157;55.512;37.764;2022-11-11T03:10:46;31.85;;;15.35;;
44197;SDS011;30157;55.512;37.764;2022-11-11T03:13:30;29.98;;;15.00;;
44197;SDS011;30157;55.512;37.764;2022-11-11T03:16:14;26.05;;;14.20;;
44197;SDS011;30157;55.512;37.764;2022-11-11T03:19:18;28.73;;;13.82;;
44197;SDS011;30157;55.512;37.764;2022-11-11T03:22:02;27.52;;;13.63;;
44197;SDS011;30157;55.512;37.764;2022-11-11T03:24:47;24.40;;;12.45;;
44197;SDS011;30157;55.512;37.764;2022-11-11T03:27:50;22.70;;;12.45;;
44197;SDS011;30157;55.512;37.764;2022-11-11T03:30:34;20.70;;;11.57;;
44197;SDS011;30157;55.512;37.764;2022-11-11T03:33:19;21.38;;;11.27;;
44197;SDS011;30157;55.512;37.764;2022-11-11T03:36:03;20.70;;;11.38;;
44197;SDS011;30157;55.512;37.764;2022-11-11T03:38:48;20.63;;;11.38;;
44197;SDS011;30157;55.512;37.764;2022-11-11T03:41:32;22.20;;;11.32;;
44197;SDS011;30157;55.512;37.764;2022-11-11T03:44:17;15.70;;;9.52;;
44197;SDS011;30157;55.512;37.764;2022-11-11T03:47:01;17.40;;;10.00;;
44197;SDS011;30157;55.512;37.764;2022-11-11T03:49:45;16.00;;;9.60;;
44197;SDS011;30157;55.512;37.764;2022-11-11T03:52:29;17.50;;;9.80;;
44197;SDS011;30157;55.512;37.764;2022-11-11T03:55:14;20.00;;;10.80;;
44197;SDS011;30157;55.512;37.764;2022-11-11T03:57:58;18.00;;;9.90;;
44197;SDS011;30157;55.512;37.764;2022-11-11T04:00:42;15.00;;;8.88;;
44197;SDS011;30157;55.512;37.764;2022-11-11T04:03:27;16.60;;;9.68;;
44197;SDS011;30157;55.512;37.764;2022-11-11T04:06:30;16.63;;;9.20;;
44197;SDS011;30157;55.512;37.764;2022-11-11T04:09:33;20.70;;;10.55;;
44197;SDS011;30157;55.512;37.764;2022-11-11T04:12:36;14.40;;;8.85;;
44197;SDS011;30157;55.512;37.764;2022-11-11T04:15:43;14.65;;;9.05;;
44197;SDS011;30157;55.512;37.764;2022-11-11T04:18:46;16.27;;;8.98;;
44197;SDS011;30157;55.512;37.764;2022-11-11T04:21:49;13.52;;;8.90;;
44197;SDS011;30157;55.512;37.764;2022-11-11T04:24:36;18.50;;;9.13;;
44197;SDS011;30157;55.512;37.764;2022-11-11T04:27:39;16.40;;;9.85;;
44197;SDS011;30157;55.512;37.764;2022-11-11T04:30:23;18.23;;;9.70;;
44197;SDS011;30157;55.512;37.764;2022-11-11T04:33:08;16.42;;;8.85;;
44197;SDS011;30157;55.512;37.764;2022-11-11T04:35:52;13.32;;;8.05;;
44197;SDS011;30157;55.512;37.764;2022-11-11T04:38:37;13.70;;;8.88;;
44197;SDS011;30157;55.512;37.764;2022-11-11T04:41:40;18.27;;;9.60;;
44197;SDS011;30157;55.512;37.764;2022-11-11T04:44:24;12.57;;;8.32;;
44197;SDS011;30157;55.512;37.764;2022-11-11T04:47:31;13.23;;;7.85;;
44197;SDS011;30157;55.512;37.764;2022-11-11T04:50:15;14.23;;;8.85;;
44197;SDS011;30157;55.512;37.764;2022-11-11T04:53:00;13.98;;;8.60;;
44197;SDS011;30157;55.512;37.764;2022-11-11T04:55:46;17.05;;;10.07;;
44197;SDS011;30157;55.512;37.764;2022-11-11T04:58:49;19.20;;;9.88;;
44197;SDS011;30157;55.512;37.764;2022-11-11T05:01:53;14.68;;;9.13;;
44197;SDS011;30157;55.512;37.764;2022-11-11T05:04:56;14.40;;;8.43;;
44197;SDS011;30157;55.512;37.764;2022-11-11T05:07:40;15.18;;;9.20;;
44197;SDS011;30157;55.512;37.764;2022-11-11T05:10:43;13.90;;;8.45;;
44197;SDS011;30157;55.512;37.764;2022-11-11T05:13:27;15.82;;;9.65;;
44197;SDS011;30157;55.512;37.764;2022-11-11T05:16:33;15.23;;;8.60;;
44197;SDS011;30157;55.512;37.764;2022-11-11T05:19:38;16.65;;;9.35;;
44197;SDS011;30157;55.512;37.764;2022-11-11T05:22:42;16.05;;;8.85;;
44197;SDS011;30157;55.512;37.764;2022-11-11T05:25:27;16.00;;;9.15;;
44197;SDS011;30157;55.512;37.764;2022-11-11T05:28:16;13.98;;;8.52;;
44197;SDS011;30157;55.512;37.764;2022-11-11T05:31:00;12.80;;;8.10;;
44197;SDS011;30157;55.512;37.764;2022-11-11T05:33:45;15.00;;;9.20;;
44197;SDS011;30157;55.512;37.764;2022-11-11T05:36:29;16.08;;;8.85;;
44197;SDS011;30157;55.512;37.764;2022-11-11T05:39:13;13.57;;;8.55;;
44197;SDS011;30157;55.512;37.764;2022-11-11T05:41:58;13.38;;;8.25;;
44197;SDS011;30157;55.512;37.764;2022-11-11T05:44:42;15.45;;;8.88;;
44197;SDS011;30157;55.512;37.764;2022-11-11T05:47:26;17.42;;;9.98;;
44197;SDS011;30157;55.512;37.764;2022-11-11T05:50:11;14.77;;;8.82;;
44197;SDS011;30157;55.512;37.764;2022-11-11T05:52:55;17.50;;;8.80;;
44197;SDS011;30157;55.512;37.764;2022-11-11T05:55:39;13.20;;;7.72;;
44197;SDS011;30157;55.512;37.764;2022-11-11T05:58:23;13.95;;;8.55;;
44197;SDS011;30157;55.512;37.764;2022-11-11T06:01:08;13.70;;;8.50;;
44197;SDS011;30157;55.512;37.764;2022-11-11T06:03:52;11.82;;;7.63;;
44197;SDS011;30157;55.512;37.764;2022-11-11T06:06:36;13.57;;;8.60;;
44197;SDS011;30157;55.512;37.764;2022-11-11T06:09:21;11.65;;;7.35;;
44197;SDS011;30157;55.512;37.764;2022-11-11T06:12:05;14.60;;;8.05;;
44197;SDS011;30157;55.512;37.764;2022-11-11T06:14:49;12.93;;;7.60;;
44197;SDS011;30157;55.512;37.764;2022-11-11T06:17:34;14.15;;;8.32;;
44197;SDS011;30157;55.512;37.764;2022-11-11T06:20:18;11.45;;;6.65;;
44197;SDS011;30157;55.512;37.764;2022-11-11T06:23:03;13.48;;;8.43;;
44197;SDS011;30157;55.512;37.764;2022-11-11T06:28:52;11.07;;;7.35;;
44197;SDS011;30157;55.512;37.764;2022-11-11T06:31:40;11.20;;;7.45;;
44197;SDS011;30157;55.512;37.764;2022-11-11T06:34:24;12.98;;;7.30;;
44197;SDS011;30157;55.512;37.764;2022-11-11T06:37:09;12.77;;;7.75;;
44197;SDS011;30157;55.512;37.764;2022-11-11T06:39:53;14.38;;;7.75;;
44197;SDS011;30157;55.512;37.764;2022-11-11T06:42:38;13.38;;;8.02;;
44197;SDS011;30157;55.512;37.764;2022-11-11T06:45:25;12.55;;;8.30;;
44197;SDS011;30157;55.512;37.764;2022-11-11T06:48:11;14.93;;;9.73;;
44197;SDS011;30157;55.512;37.764;2022-11-11T06:51:03;14.15;;;8.15;;
44197;SDS011;30157;55.512;37.764;2022-11-11T06:53:49;12.25;;;7.70;;
44197;SDS011;30157;55.512;37.764;2022-11-11T06:56:33;14.02;;;7.75;;
44197;SDS011;30157;55.512;37.764;2022-11-11T06:59:18;14.32;;;7.93;;
44197;SDS011;30157;55.512;37.764;2022-11-11T07:02:02;11.60;;;7.57;;
44197;SDS011;30157;55.512;37.764;2022-11-11T07:04:47;13.63;;;7.82;;
44197;SDS011;30157;55.512;37.764;2022-11-11T07:07:31;14.32;;;8.98;;
44197;SDS011;30157;55.512;37.764;2022-11-11T07:10:15;12.48;;;7.72;;
44197;SDS011;30157;55.512;37.764;2022-11-11T07:13:00;12.13;;;7.43;;
44197;SDS011;30157;55.512;37.764;2022-11-11T07:15:45;14.80;;;9.07;;
44197;SDS011;30157;55.512;37.764;2022-11-11T07:18:30;12.43;;;7.82;;
44197;SDS011;30157;55.512;37.764;2022-11-11T07:21:14;13.30;;;7.55;;
44197;SDS011;30157;55.512;37.764;2022-11-11T07:23:58;14.13;;;8.40;;
44197;SDS011;30157;55.512;37.764;2022-11-11T07:26:42;13.45;;;7.80;;
44197;SDS011;30157;55.512;37.764;2022-11-11T07:29:26;11.68;;;7.80;;
44197;SDS011;30157;55.512;37.764;2022-11-11T07:32:11;15.85;;;8.52;;
44197;SDS011;30157;55.512;37.764;2022-11-11T07:34:56;15.10;;;8.55;;
44197;SDS011;30157;55.512;37.764;2022-11-11T07:37:40;12.85;;;8.02;;
44197;SDS011;30157;55.512;37.764;2022-11-11T07:40:25;12.93;;;7.88;;
44197;SDS011;30157;55.512;37.764;2022-11-11T07:43:09;15.45;;;8.93;;
44197;SDS011;30157;55.512;37.764;2022-11-11T07:45:54;14.35;;;8.85;;
44197;SDS011;30157;55.512;37.764;2022-11-11T07:48:38;14.93;;;8.63;;
44197;SDS011;30157;55.512;37.764;2022-11-11T07:51:23;19.63;;;10.60;;
44197;SDS011;30157;55.512;37.764;2022-11-11T07:54:07;19.95;;;9.88;;
44197;SDS011;30157;55.512;37.764;2022-11-11T07:56:52;17.35;;;10.07;;
44197;SDS011;30157;55.512;37.764;2022-11-11T07:59:36;14.60;;;8.55;;
44197;SDS011;30157;55.512;37.764;2022-11-11T08:02:21;14.75;;;8.95;;
44197;SDS011;30157;55.512;37.764;2022-11-11T08:05:05;17.90;;;9.00;;
44197;SDS011;30157;55.512;37.764;2022-11-11T08:07:50;16.27;;;9.20;;
44197;SDS011;30157;55.512;37.764;2022-11-11T08:10:34;16.33;;;9.57;;
44197;SDS011;30157;55.512;37.764;2022-11-11T08:13:19;16.80;;;9.15;;
44197;SDS011;30157;55.512;37.764;2022-11-11T08:16:22;17.90;;;10.13;;
44197;SDS011;30157;55.512;37.764;2022-11-11T08:19:07;14.52;;;8.82;;
44197;SDS011;30157;55.512;37.764;2022-11-11T08:21:51;18.48;;;9.68;;
44197;SDS011;30157;55.512;37.764;2022-11-11T08:24:36;15.63;;;9.30;;
44197;SDS011;30157;55.512;37.764;2022-11-11T08:27:20;14.55;;;8.77;;
44197;SDS011;30157;55.512;37.764;2022-11-11T08:30:05;15.25;;;8.98;;
44197;SDS011;30157;55.512;37.764;2022-11-11T08:33:00;16.67;;;9.30;;
44197;SDS011;30157;55.512;37.764;2022-11-11T08:35:45;17.88;;;9.23;;
44197;SDS011;30157;55.512;37.764;2022-11-11T08:38:30;14.52;;;8.32;;
44197;SDS011;30157;55.512;37.764;2022-11-11T08:41:14;22.25;;;11.73;;
44197;SDS011;30157;55.512;37.764;2022-11-11T08:43:59;17.10;;;9.35;;
44197;SDS011;30157;55.512;37.764;2022-11-11T08:46:45;16.60;;;9.13;;
44197;SDS011;30157;55.512;37.764;2022-11-11T08:49:30;17.92;;;9.75;;
44197;SDS011;30157;55.512;37.764;2022-11-11T08:52:14;15.67;;;8.67;;
44197;SDS011;30157;55.512;37.764;2022-11-11T08:54:59;16.38;;;9.02;;
44197;SDS011;30157;55.512;37.764;2022-11-11T08:57:43;17.40;;;9.45;;
44197;SDS011;30157;55.512;37.764;2022-11-11T09:00:28;19.77;;;9.32;;
44197;SDS011;30157;55.512;37.764;2022-11-11T09:03:12;20.00;;;10.43;;
44197;SDS011;30157;55.512;37.764;2022-11-11T09:05:57;21.23;;;10.93;;
44197;SDS011;30157;55.512;37.764;2022-11-11T09:08:42;16.05;;;9.88;;
44197;SDS011;30157;55.512;37.764;2022-11-11T09:11:27;19.50;;;10.55;;
44197;SDS011;30157;55.512;37.764;2022-11-11T09:14:11;15.30;;;9.40;;
44197;SDS011;30157;55.512;37.764;2022-11-11T09:16:55;18.08;;;9.98;;
44197;SDS011;30157;55.512;37.764;2022-11-11T09:19:39;16.65;;;8.93;;
44197;SDS011;30157;55.512;37.764;2022-11-11T09:22:24;14.85;;;8.95;;
44197;SDS011;30157;55.512;37.764;2022-11-11T09:25:08;13.98;;;8.32;;
44197;SDS011;30157;55.512;37.764;2022-11-11T09:27:55;11.68;;;7.03;;
44197;SDS011;30157;55.512;37.764;2022-11-11T09:30:40;11.68;;;7.03;;
44197;SDS011;30157;55.512;37.764;2022-11-11T09:33:24;10.82;;;6.70;;
44197;SDS011;30157;55.512;37.764;2022-11-11T09:36:09;13.25;;;7.55;;
44197;SDS011;30157;55.512;37.764;2022-11-11T09:38:53;10.35;;;6.70;;
44197;SDS011;30157;55.512;37.764;2022-11-11T09:41:52;11.50;;;6.63;;
44197;SDS011;30157;55.512;37.764;2022-11-11T09:45:28;10.48;;;6.43;;
44197;SDS011;30157;55.512;37.764;2022-11-11T09:48:29;11.50;;;6.63;;
44197;SDS011;30157;55.512;37.764;2022-11-11T09:51:28;9.07;;;5.97;;
44197;SDS011;30157;55.512;37.764;2022-11-11T09:54:26;10.77;;;6.15;;
44197;SDS011;30157;55.512;37.764;2022-11-11T09:58:19;9.90;;;6.05;;
44197;SDS011;30157;55.512;37.764;2022-11-11T10:00:44;9.70;;;5.88;;
44197;SDS011;30157;55.512;37.764;2022-11-11T10:03:30;9.95;;;6.25;;
44197;SDS011;30157;55.512;37.764;2022-11-11T10:06:25;10.13;;;6.35;;
44197;SDS011;30157;55.512;37.764;2022-11-11T10:09:16;12.35;;;6.03;;
44197;SDS011;30157;55.512;37.764;2022-11-11T10:12:14;9.30;;;6.40;;
44197;SDS011;30157;55.512;37.764;2022-11-11T10:14:59;9.13;;;6.05;;
44197;SDS011;30157;55.512;37.764;2022-11-11T10:18:00;8.40;;;5.68;;
44197;SDS011;30157;55.512;37.764;2022-11-11T10:21:18;9.88;;;6.43;;
44197;SDS011;30157;55.512;37.764;2022-11-11T10:24:10;10.88;;;6.20;;
44197;SDS011;30157;55.512;37.764;2022-11-11T10:27:00;9.13;;;6.07;;
44197;SDS011;30157;55.512;37.764;2022-11-11T10:29:50;10.27;;;6.35;;
44197;SDS011;30157;55.512;37.764;2022-11-11T10:32:34;12.80;;;6.93;;
44197;SDS011;30157;55.512;37.764;2022-11-11T10:35:20;10.98;;;6.70;;
44197;SDS011;30157;55.512;37.764;2022-11-11T10:40:55;12.40;;;6.65;;
44197;SDS011;30157;55.512;37.764;2022-11-11T10:43:44;8.35;;;5.50;;
44197;SDS011;30157;55.512;37.764;2022-11-11T10:46:32;8.65;;;5.93;;
44197;SDS011;30157;55.512;37.764;2022-11-11T10:49:25;12.90;;;6.30;;
44197;SDS011;30157;55.512;37.764;2022-11-11T10:52:18;10.38;;;5.60;;
44197;SDS011;30157;55.512;37.764;2022-11-11T10:55:10;10.55;;;5.88;;
44197;SDS011;30157;55.512;37.764;2022-11-11T10:58:16;9.48;;;5.68;;
44197;SDS011;30157;55.512;37.764;2022-11-11T11:01:03;9.15;;;5.53;;
44197;SDS011;30157;55.512;37.764;2022-11-11T11:04:02;10.15;;;5.50;;
44197;SDS011;30157;55.512;37.764;2022-11-11T11:06:49;10.40;;;6.25;;
44197;SDS011;30157;55.512;37.764;2022-11-11T11:09:39;7.65;;;5.25;;
44197;SDS011;30157;55.512;37.764;2022-11-11T11:12:40;9.73;;;5.60;;
44197;SDS011;30157;55.512;37.764;2022-11-11T11:15:30;8.45;;;5.63;;
44197;SDS011;30157;55.512;37.764;2022-11-11T11:18:17;10.45;;;5.88;;
44197;SDS011;30157;55.512;37.764;2022-11-11T11:21:05;11.52;;;6.18;;
44197;SDS011;30157;55.512;37.764;2022-11-11T11:23:50;7.95;;;5.57;;
44197;SDS011;30157;55.512;37.764;2022-11-11T11:26:42;8.57;;;5.72;;
44197;SDS011;30157;55.512;37.764;2022-11-11T11:29:32;8.98;;;5.60;;
44197;SDS011;30157;55.512;37.764;2022-11-11T11:32:27;11.40;;;5.80;;
44197;SDS011;30157;55.512;37.764;2022-11-11T11:38:18;8.13;;;5.45;;
44197;SDS011;30157;55.512;37.764;2022-11-11T11:41:02;9.82;;;5.93;;
44197;SDS011;30157;55.512;37.764;2022-11-11T11:43:46;9.35;;;5.80;;
44197;SDS011;30157;55.512;37.764;2022-11-11T11:46:37;8.93;;;5.82;;
44197;SDS011;30157;55.512;37.764;2022-11-11T12:04:26;7.90;;;5.10;;
44197;SDS011;30157;55.512;37.764;2022-11-11T12:14:09;6.85;;;4.90;;
44197;SDS011;30157;55.512;37.764;2022-11-11T12:25:36;8.43;;;4.75;;
44197;SDS011;30157;55.512;37.764;2022-11-11T12:31:44;9.00;;;5.53;;
44197;SDS011;30157;55.512;37.764;2022-11-11T12:34:58;8.50;;;5.10;;
44197;SDS011;30157;55.512;37.764;2022-11-11T12:44:12;9.38;;;5.75;;
44197;SDS011;30157;55.512;37.764;2022-11-11T12:47:03;10.02;;;5.95;;
44197;SDS011;30157;55.512;37.764;2022-11-11T12:49:53;9.00;;;5.70;;
44197;SDS011;30157;55.512;37.764;2022-11-11T12:56:28;11.00;;;5.65;;
44197;SDS011;30157;55.512;37.764;2022-11-11T12:59:33;9.50;;;5.70;;
44197;SDS011;30157;55.512;37.764;2022-11-11T13:14:48;9.70;;;6.55;;
44197;SDS011;30157;55.512;37.764;2022-11-11T13:17:46;10.18;;;5.35;;
44197;SDS011;30157;55.512;37.764;2022-11-11T13:20:49;9.15;;;5.65;;
44197;SDS011;30157;55.512;37.764;2022-11-11T13:23:49;9.13;;;5.63;;
44197;SDS011;30157;55.512;37.764;2022-11-11T13:26:45;8.70;;;4.82;;
44197;SDS011;30157;55.512;37.764;2022-11-11T13:33:04;8.23;;;5.50;;
44197;SDS011;30157;55.512;37.764;2022-11-11T13:35:58;7.18;;;4.68;;
44197;SDS011;30157;55.512;37.764;2022-11-11T13:41:32;8.55;;;5.22;;
44197;SDS011;30157;55.512;37.764;2022-11-11T13:44:21;7.45;;;5.25;;
44197;SDS011;30157;55.512;37.764;2022-11-11T13:47:16;10.75;;;5.72;;
44197;SDS011;30157;55.512;37.764;2022-11-11T13:53:06;6.25;;;4.60;;
44197;SDS011;30157;55.512;37.764;2022-11-11T13:55:59;8.15;;;4.63;;
44197;SDS011;30157;55.512;37.764;2022-11-11T13:58:46;8.98;;;4.70;;
44197;SDS011;30157;55.512;37.764;2022-11-11T14:01:33;7.20;;;4.70;;
44197;SDS011;30157;55.512;37.764;2022-11-11T14:04:19;9.75;;;5.45;;
44197;SDS011;30157;55.512;37.764;2022-11-11T14:07:06;9.30;;;6.00;;
44197;SDS011;30157;55.512;37.764;2022-11-11T14:09:59;7.30;;;4.88;;
44197;SDS011;30157;55.512;37.764;2022-11-11T14:12:46;7.53;;;4.50;;
44197;SDS011;30157;55.512;37.764;2022-11-11T14:15:40;6.80;;;4.68;;
44197;SDS011;30157;55.512;37.764;2022-11-11T14:18:37;6.85;;;4.57;;
44197;SDS011;30157;55.512;37.764;2022-11-11T14:21:45;7.60;;;4.88;;
44197;SDS011;30157;55.512;37.764;2022-11-11T14:24:38;6.57;;;4.53;;
44197;SDS011;30157;55.512;37.764;2022-11-11T14:27:26;7.95;;;5.05;;
44197;SDS011;30157;55.512;37.764;2022-11-11T14:30:26;7.90;;;4.10;;
44197;SDS011;30157;55.512;37.764;2022-11-11T14:33:26;6.53;;;4.80;;
44197;SDS011;30157;55.512;37.764;2022-11-11T14:42:02;10.88;;;5.22;;
44197;SDS011;30157;55.512;37.764;2022-11-11T14:44:47;6.93;;;4.80;;
44197;SDS011;30157;55.512;37.764;2022-11-11T14:47:38;7.82;;;4.90;;
44197;SDS011;30157;55.512;37.764;2022-11-11T14:53:17;6.45;;;4.75;;
44197;SDS011;30157;55.512;37.764;2022-11-11T14:56:03;9.15;;;5.22;;
44197;SDS011;30157;55.512;37.764;2022-11-11T14:58:56;7.47;;;5.03;;
44197;SDS011;30157;55.512;37.764;2022-11-11T15:01:48;8.50;;;5.28;;
44197;SDS011;30157;55.512;37.764;2022-11-11T15:04:36;9.23;;;4.75;;
44197;SDS011;30157;55.512;37.764;2022-11-11T15:07:27;7.28;;;4.18;;
44197;SDS011;30157;55.512;37.764;2022-11-11T15:10:29;8.45;;;4.00;;
44197;SDS011;30157;55.512;37.764;2022-11-11T15:13:30;6.50;;;3.53;;
44197;SDS011;30157;55.512;37.764;2022-11-11T15:19:46;7.00;;;4.03;;
44197;SDS011;30157;55.512;37.764;2022-11-11T15:32:25;4.72;;;3.17;;
44197;SDS011;30157;55.512;37.764;2022-11-11T15:38:10;5.68;;;3.70;;
44197;SDS011;30157;55.512;37.764;2022-11-11T15:40:56;8.15;;;4.30;;
44197;SDS011;30157;55.512;37.764;2022-11-11T15:43:43;7.45;;;4.63;;
44197;SDS011;30157;55.512;37.764;2022-11-11T15:46:28;9.35;;;4.57;;
44197;SDS011;30157;55.512;37.764;2022-11-11T15:49:35;7.55;;;4.68;;
44197;SDS011;30157;55.512;37.764;2022-11-11T15:52:31;7.88;;;4.55;;
44197;SDS011;30157;55.512;37.764;2022-11-11T15:55:21;9.00;;;4.10;;
44197;SDS011;30157;55.512;37.764;2022-11-11T15:58:15;6.50;;;3.90;;
44197;SDS011;30157;55.512;37.764;2022-11-11T16:01:09;6.40;;;4.22;;
44197;SDS011;30157;55.512;37.764;2022-11-11T16:03:54;6.18;;;3.83;;
44197;SDS011;30157;55.512;37.764;2022-11-11T16:06:39;9.45;;;4.68;;
44197;SDS011;30157;55.512;37.764;2022-11-11T16:09:24;7.35;;;3.53;;
44197;SDS011;30157;55.512;37.764;2022-11-11T16:12:10;6.28;;;3.60;;
44197;SDS011;30157;55.512;37.764;2022-11-11T16:14:56;5.22;;;3.30;;
44197;SDS011;30157;55.512;37.764;2022-11-11T16:17:43;8.43;;;3.45;;
44197;SDS011;30157;55.512;37.764;2022-11-11T16:20:29;5.60;;;3.47;;
44197;SDS011;30157;55.512;37.764;2022-11-11T16:23:24;9.85;;;3.97;;
44197;SDS011;30157;55.512;37.764;2022-11-11T16:26:09;7.00;;;3.30;;
44197;SDS011;30157;55.512;37.764;2022-11-11T16:28:55;8.38;;;3.80;;
44197;SDS011;30157;55.512;37.764;2022-11-11T16:31:41;5.53;;;3.22;;
44197;SDS011;30157;55.512;37.764;2022-11-11T16:37:10;8.07;;;3.92;;
44197;SDS011;30157;55.512;37.764;2022-11-11T16:39:56;8.13;;;4.05;;
44197;SDS011;30157;55.512;37.764;2022-11-11T16:43:22;5.65;;;3.53;;
44197;SDS011;30157;55.512;37.764;2022-11-11T16:46:13;7.72;;;3.60;;
44197;SDS011;30157;55.512;37.764;2022-11-11T16:48:58;6.72;;;3.85;;
44197;SDS011;30157;55.512;37.764;2022-11-11T16:51:44;6.95;;;3.63;;
44197;SDS011;30157;55.512;37.764;2022-11-11T16:54:30;6.63;;;4.13;;
44197;SDS011;30157;55.512;37.764;2022-11-11T16:57:21;8.57;;;4.25;;
44197;SDS011;30157;55.512;37.764;2022-11-11T17:00:11;8.07;;;4.72;;
44197;SDS011;30157;55.512;37.764;2022-11-11T17:06:07;9.23;;;5.07;;
44197;SDS011;30157;55.512;37.764;2022-11-11T17:08:51;9.23;;;4.70;;
44197;SDS011;30157;55.512;37.764;2022-11-11T17:14:23;10.45;;;4.82;;
44197;SDS011;30157;55.512;37.764;2022-11-11T17:17:08;8.55;;;4.88;;
44197;SDS011;30157;55.512;37.764;2022-11-11T17:19:57;8.43;;;4.72;;
44197;SDS011;30157;55.512;37.764;2022-11-11T17:22:55;7.20;;;4.13;;
44197;SDS011;30157;55.512;37.764;2022-11-11T17:25:40;9.63;;;5.05;;
44197;SDS011;30157;55.512;37.764;2022-11-11T17:28:25;9.73;;;5.38;;
44197;SDS011;30157;55.512;37.764;2022-11-11T17:31:10;9.48;;;4.95;;
44197;SDS011;30157;55.512;37.764;2022-11-11T17:33:55;8.40;;;5.20;;
44197;SDS011;30157;55.512;37.764;2022-11-11T17:36:40;8.90;;;4.97;;
44197;SDS011;30157;55.512;37.764;2022-11-11T17:39:24;10.30;;;5.57;;
44197;SDS011;30157;55.512;37.764;2022-11-11T17:42:08;9.73;;;5.68;;
44197;SDS011;30157;55.512;37.764;2022-11-11T17:44:53;8.80;;;5.50;;
44197;SDS011;30157;55.512;37.764;2022-11-11T17:47:37;8.55;;;5.50;;
44197;SDS011;30157;55.512;37.764;2022-11-11T17:50:21;14.55;;;6.50;;
44197;SDS011;30157;55.512;37.764;2022-11-11T17:53:06;9.60;;;6.20;;
44197;SDS011;30157;55.512;37.764;2022-11-11T17:55:51;10.00;;;5.95;;
44197;SDS011;30157;55.512;37.764;2022-11-11T17:58:35;11.45;;;6.43;;
44197;SDS011;30157;55.512;37.764;2022-11-11T18:01:20;11.15;;;6.88;;
44197;SDS011;30157;55.512;37.764;2022-11-11T18:04:05;13.07;;;7.30;;
44197;SDS011;30157;55.512;37.764;2022-11-11T18:06:49;11.98;;;7.75;;
44197;SDS011;30157;55.512;37.764;2022-11-11T18:09:33;11.88;;;7.00;;
44197;SDS011;30157;55.512;37.764;2022-11-11T18:12:17;12.90;;;7.75;;
44197;SDS011;30157;55.512;37.764;2022-11-11T18:15:02;13.75;;;7.88;;
44197;SDS011;30157;55.512;37.764;2022-11-11T18:17:47;11.18;;;6.90;;
44197;SDS011;30157;55.512;37.764;2022-11-11T18:20:31;14.13;;;7.63;;
44197;SDS011;30157;55.512;37.764;2022-11-11T18:23:15;13.32;;;7.78;;
44197;SDS011;30157;55.512;37.764;2022-11-11T18:26:00;12.90;;;7.03;;
44197;SDS011;30157;55.512;37.764;2022-11-11T18:28:45;12.65;;;7.70;;
44197;SDS011;30157;55.512;37.764;2022-11-11T18:31:29;11.02;;;7.63;;